Time;durP1;ratioP1;P1;durP2;ratioP2;P2;SDS_P1;SDS_P2;PMS_P1;PMS_P2;Temp;Humidity;BMP_temperature;BMP_pressure;BME280_temperature;BME280_humidity;BME280_pressure;Samples;Min_cycle;Max_cycle;Signal;HPM_P1;HPM_P2
2023/10/28 00:02:29;;;;;;;;;;;;;;;11.45;71.83;96363.09;4953302;28;19930;-77
2023/10/28 00:05:17;;;;;;;;;;;;;;;11.50;71.70;96363.63;4957999;28;19926;-77
2023/10/28 00:08:07;;;;;;;;;;;;;;;11.19;73.34;96369.91;4946586;28;19930;-77
2023/10/28 00:10:55;;;;;;;;;;;;;;;11.37;72.85;96367.59;4954181;28;19929;-77
2023/10/28 00:13:43;;;;;;;;;;;;;;;11.37;73.14;96380.41;4943042;28;19973;-77
2023/10/28 00:16:35;;;;;;;;;;;;;;;11.37;73.36;96375.75;4955735;28;19946;-77
2023/10/28 00:19:24;;;;;;;;;;;;;;;11.18;74.29;96391.97;4957315;28;19927;-77
2023/10/28 00:22:12;;;;;;;;;;;;;;;11.23;73.86;96391.72;4953698;28;20001;-77
2023/10/28 00:25:02;;;;;;;;;;;;;;;11.33;74.41;96393.91;4954476;28;19930;-77
2023/10/28 00:27:50;;;;;;;;;;;;;;;11.53;73.83;96392.81;4949877;28;19934;-77
2023/10/28 00:30:38;;;;;;;;;;;;;;;11.36;74.23;96406.00;4937796;28;20050;-77
2023/10/28 00:33:27;;;;;;;;;;;;;;;11.37;74.47;96402.94;4953159;28;19985;-76
2023/10/28 00:36:15;;;;;;;;;;;;;;;11.41;74.65;96411.19;4953205;28;19923;-77
2023/10/28 00:39:06;;;;;;;;;;;;;;;11.51;74.23;96406.00;4951727;28;19926;-77
2023/10/28 00:41:56;;;;;;;;;;;;;;;11.47;74.42;96399.69;4951925;28;20254;-77
2023/10/28 00:44:44;;;;;;;;;;;;;;;11.53;74.00;96403.69;4938358;29;19923;-77
2023/10/28 00:47:33;;;;;;;;;;;;;;;11.53;73.76;96405.63;4952745;28;20372;-77
2023/10/28 00:50:23;;;;;;;;;;;;;;;11.55;73.61;96404.13;4953758;28;19930;-77
2023/10/28 00:53:11;;;;;;;;;;;;;;;11.47;73.91;96412.50;4944056;28;19949;-77
2023/10/28 00:56:01;;;;;;;;;;;;;;;11.31;74.95;96409.78;4953906;28;19929;-76
2023/10/28 00:58:51;;;;;;;;;;;;;;;11.41;74.93;96409.25;4934945;28;20021;-76
2023/10/28 01:01:39;;;;;;;;;;;;;;;11.33;75.89;96406.72;4965295;28;19934;-77
2023/10/28 01:04:27;;;;;;;;;;;;;;;11.49;75.58;96410.97;4960239;28;19937;-77
2023/10/28 01:07:15;;;;;;;;;;;;;;;11.21;76.46;96408.38;4957219;28;19922;-77
2023/10/28 01:10:03;;;;;;;;;;;;;;;11.06;75.96;96406.47;4965990;28;19926;-77
2023/10/28 01:12:54;;;;;;;;;;;;;;;10.86;77.08;96402.84;4974458;28;20407;-77
2023/10/28 01:15:44;;;;;;;;;;;;;;;11.11;76.36;96402.69;4971884;28;19934;-77
2023/10/28 01:18:32;;;;;;;;;;;;;;;11.32;75.69;96405.13;4971238;28;19922;-77
2023/10/28 01:21:22;;;;;;;;;;;;;;;11.21;76.20;96408.38;4953482;28;19922;-77
2023/10/28 01:24:10;;;;;;;;;;;;;;;11.05;76.41;96409.53;4971721;28;19929;-77
2023/10/28 01:26:58;;;;;;;;;;;;;;;11.13;76.44;96406.66;4970783;28;19933;-77
2023/10/28 01:29:47;;;;;;;;;;;;;;;11.20;76.78;96412.25;4955582;28;19922;-77
2023/10/28 01:32:35;;;;;;;;;;;;;;;11.26;76.66;96413.56;4956951;28;19933;-77
2023/10/28 01:35:23;;;;;;;;;;;;;;;11.18;76.91;96405.56;4969928;28;19942;-77
2023/10/28 01:38:13;;;;;;;;;;;;;;;11.36;76.50;96409.53;4957168;28;19929;-77
2023/10/28 01:41:01;;;;;;;;;;;;;;;11.11;77.64;96408.13;4973609;28;19944;-76
2023/10/28 01:43:49;;;;;;;;;;;;;;;11.20;76.85;96416.91;4967581;28;20028;-76
2023/10/28 01:46:37;;;;;;;;;;;;;;;10.99;78.17;96415.22;4956438;28;19929;-77
2023/10/28 01:49:25;;;;;;;;;;;;;;;11.24;77.20;96412.34;4965710;28;20009;-76
2023/10/28 01:52:15;;;;;;;;;;;;;;;11.15;77.72;96406.28;4954426;28;19937;-76
2023/10/28 01:55:05;;;;;;;;;;;;;;;11.15;77.02;96403.56;4957321;28;19937;-77
2023/10/28 01:57:53;;;;;;;;;;;;;;;11.18;77.22;96409.06;4972213;28;19929;-76
2023/10/28 02:00:41;;;;;;;;;;;;;;;10.96;77.94;96412.41;4947065;28;20387;-77
2023/10/28 02:06:41;;;;;;;;;;;;;;;10.83;77.31;96414.44;4973488;28;20122;-77
2023/10/28 02:09:32;;;;;;;;;;;;;;;10.90;76.88;96417.31;4948234;28;19969;-77
2023/10/28 02:12:22;;;;;;;;;;;;;;;10.75;78.13;96418.09;4968330;28;20017;-77
2023/10/28 02:15:10;;;;;;;;;;;;;;;10.97;77.16;96425.66;4953864;28;19945;-76
2023/10/28 02:17:59;;;;;;;;;;;;;;;11.05;76.62;96423.13;4968320;28;19922;-76
2023/10/28 02:20:47;;;;;;;;;;;;;;;11.09;76.55;96415.84;4956764;28;20376;-77
2023/10/28 02:23:35;;;;;;;;;;;;;;;10.99;76.35;96422.59;4969805;28;19926;-77
2023/10/28 02:26:23;;;;;;;;;;;;;;;11.00;76.82;96419.53;4971213;28;20272;-76
2023/10/28 02:29:12;;;;;;;;;;;;;;;11.18;76.14;96430.81;4967057;28;19929;-76
2023/10/28 02:32:01;;;;;;;;;;;;;;;11.20;76.12;96428.56;4956643;28;19922;-76
2023/10/28 02:34:49;;;;;;;;;;;;;;;11.40;75.23;96431.34;4970919;28;20483;-77
2023/10/28 02:37:39;;;;;;;;;;;;;;;11.30;75.08;96429.97;4969130;28;19922;-77
2023/10/28 02:40:27;;;;;;;;;;;;;;;11.31;75.54;96431.53;4955847;28;19922;-77
2023/10/28 02:43:16;;;;;;;;;;;;;;;11.27;75.52;96439.59;4971323;28;19984;-77
2023/10/28 02:46:05;;;;;;;;;;;;;;;11.07;75.60;96439.84;4954234;28;19922;-77
2023/10/28 02:48:53;;;;;;;;;;;;;;;11.24;75.50;96444.97;4970719;28;19934;-76
2023/10/28 02:51:41;;;;;;;;;;;;;;;11.13;76.27;96441.16;4960818;28;19923;-77
2023/10/28 02:54:30;;;;;;;;;;;;;;;10.88;76.84;96441.34;4966215;28;19929;-76
2023/10/28 02:57:18;;;;;;;;;;;;;;;11.11;76.39;96438.81;4969418;28;19926;-77
2023/10/28 03:00:08;;;;;;;;;;;;;;;10.97;76.49;96443.88;4956041;28;19941;-77
2023/10/28 03:02:58;;;;;;;;;;;;;;;11.20;76.17;96444.09;4951965;28;19922;-77
2023/10/28 03:05:46;;;;;;;;;;;;;;;11.15;76.01;96439.69;4969093;28;19933;-77
2023/10/28 03:08:34;;;;;;;;;;;;;;;11.12;76.20;96440.38;4969683;28;20403;-77
2023/10/28 03:11:22;;;;;;;;;;;;;;;11.30;75.49;96440.06;4956146;28;19929;-77
2023/10/28 03:14:11;;;;;;;;;;;;;;;11.26;75.45;96439.97;4956207;28;19934;-77
2023/10/28 03:17:00;;;;;;;;;;;;;;;11.38;74.80;96448.00;4966664;28;19922;-77
2023/10/28 03:19:51;;;;;;;;;;;;;;;11.33;74.68;96452.94;4966417;28;19926;-77
2023/10/28 03:22:39;;;;;;;;;;;;;;;11.39;74.26;96456.97;4953918;28;19976;-77
2023/10/28 03:25:27;;;;;;;;;;;;;;;11.41;74.38;96460.91;4950212;28;20280;-77
2023/10/28 03:28:15;;;;;;;;;;;;;;;11.17;75.20;96451.00;4970807;28;19922;-77
2023/10/28 03:31:07;;;;;;;;;;;;;;;11.21;74.97;96451.09;4965083;28;19931;-77
2023/10/28 03:33:55;;;;;;;;;;;;;;;11.27;73.96;96453.19;4960948;28;19928;-77
2023/10/28 03:36:47;;;;;;;;;;;;;;;11.31;74.36;96457.94;4961450;28;19926;-76
2023/10/28 03:39:35;;;;;;;;;;;;;;;11.01;76.12;96459.13;4968122;28;19922;-77
2023/10/28 03:42:23;;;;;;;;;;;;;;;11.20;75.34;96454.97;4955709;28;20065;-77
2023/10/28 03:45:14;;;;;;;;;;;;;;;11.28;74.24;96453.97;4966335;28;20257;-77
2023/10/28 03:48:06;;;;;;;;;;;;;;;11.27;74.29;96457.84;4965797;28;19969;-77
2023/10/28 03:50:58;;;;;;;;;;;;;;;11.22;75.05;96466.25;4965964;28;19934;-77
2023/10/28 03:53:47;;;;;;;;;;;;;;;11.41;74.68;96471.00;4962801;28;19928;-77
2023/10/28 03:56:35;;;;;;;;;;;;;;;11.20;75.55;96471.28;4963851;28;19922;-77
2023/10/28 03:59:23;;;;;;;;;;;;;;;11.38;74.86;96467.03;4969920;28;19929;-77
2023/10/28 04:02:11;;;;;;;;;;;;;;;11.33;74.53;96470.03;4951711;28;19922;-77
2023/10/28 04:04:59;;;;;;;;;;;;;;;11.34;73.95;96476.25;4967644;28;20028;-77
2023/10/28 04:07:47;;;;;;;;;;;;;;;11.34;73.96;96477.03;4970926;28;19922;-77
2023/10/28 04:10:36;;;;;;;;;;;;;;;11.40;73.18;96491.97;4960566;28;19922;-77
2023/10/28 04:13:25;;;;;;;;;;;;;;;11.42;73.85;96491.63;4968570;28;20405;-77
2023/10/28 04:16:13;;;;;;;;;;;;;;;11.46;74.01;96489.78;4966690;28;20275;-77
2023/10/28 04:19:02;;;;;;;;;;;;;;;11.68;72.82;96496.53;4970165;28;20068;-76
2023/10/28 04:21:51;;;;;;;;;;;;;;;11.72;72.21;96500.13;4969956;28;19934;-77
2023/10/28 04:24:39;;;;;;;;;;;;;;;11.62;73.34;96498.72;4968598;28;20024;-77
2023/10/28 04:27:29;;;;;;;;;;;;;;;11.74;73.17;96503.28;4953744;28;19922;-77
2023/10/28 04:30:18;;;;;;;;;;;;;;;11.81;71.81;96506.16;4957165;28;20450;-77
2023/10/28 04:33:06;;;;;;;;;;;;;;;11.68;72.04;96510.13;4960267;28;19938;-77
2023/10/28 04:35:55;;;;;;;;;;;;;;;11.82;71.26;96507.75;4972559;28;20017;-78
2023/10/28 04:38:43;;;;;;;;;;;;;;;11.92;71.10;96512.66;4953091;28;19923;-77
2023/10/28 04:41:31;;;;;;;;;;;;;;;11.92;70.76;96515.38;4975463;28;19922;-77
2023/10/28 04:44:20;;;;;;;;;;;;;;;11.96;70.33;96518.97;4970012;28;20275;-76
2023/10/28 04:47:08;;;;;;;;;;;;;;;11.84;70.32;96521.81;4957890;28;19926;-76
2023/10/28 04:49:56;;;;;;;;;;;;;;;12.02;70.64;96522.22;4971559;28;19922;-77
2023/10/28 04:52:44;;;;;;;;;;;;;;;11.97;70.50;96531.44;4951739;28;19922;-77
2023/10/28 04:55:32;;;;;;;;;;;;;;;12.03;69.97;96521.84;4972502;28;19972;-76
2023/10/28 04:58:21;;;;;;;;;;;;;;;11.96;69.74;96527.13;4968961;28;19930;-76
2023/10/28 05:01:11;;;;;;;;;;;;;;;12.15;69.15;96525.63;4969801;28;19925;-77
2023/10/28 05:04:00;;;;;;;;;;;;;;;11.70;70.47;96535.03;4967433;28;20020;-77
2023/10/28 05:06:48;;;;;;;;;;;;;;;11.96;69.94;96518.97;4969733;28;20371;-76
2023/10/28 05:09:37;;;;;;;;;;;;;;;12.06;69.09;96529.31;4967932;28;20357;-77
2023/10/28 05:12:24;;;;;;;;;;;;;;;11.98;69.39;96535.72;4971126;28;20012;-77
2023/10/28 05:15:13;;;;;;;;;;;;;;;11.78;70.24;96534.88;4970090;28;20265;-77
2023/10/28 05:18:03;;;;;;;;;;;;;;;11.99;69.26;96536.53;4971394;28;19922;-77
2023/10/28 05:20:53;;;;;;;;;;;;;;;11.90;69.47;96536.72;4964556;28;20008;-76
2023/10/28 05:23:41;;;;;;;;;;;;;;;11.92;70.46;96534.44;4967849;28;19929;-77
2023/10/28 05:26:29;;;;;;;;;;;;;;;11.73;70.20;96547.94;4968431;28;19926;-77
2023/10/28 05:29:17;;;;;;;;;;;;;;;11.93;70.07;96546.91;4968146;28;19934;-77
2023/10/28 05:32:05;;;;;;;;;;;;;;;11.91;69.68;96549.19;4970015;28;19923;-77
2023/10/28 05:34:56;;;;;;;;;;;;;;;11.84;69.79;96545.50;4972636;28;19933;-76
2023/10/28 05:37:44;;;;;;;;;;;;;;;11.58;71.02;96546.00;4973232;28;20399;-77
2023/10/28 05:40:32;;;;;;;;;;;;;;;11.78;69.90;96553.13;4953372;28;20073;-77
2023/10/28 05:43:20;;;;;;;;;;;;;;;11.85;69.61;96556.03;4969417;28;20522;-77
2023/10/28 05:46:09;;;;;;;;;;;;;;;11.85;69.33;96552.53;4971250;28;19922;-76
2023/10/28 05:48:57;;;;;;;;;;;;;;;11.83;69.98;96552.88;4969573;28;20296;-76
2023/10/28 05:51:47;;;;;;;;;;;;;;;11.78;70.48;96550.41;4971263;28;19922;-77
2023/10/28 05:54:35;;;;;;;;;;;;;;;11.73;69.91;96550.66;4961268;28;19929;-77
2023/10/28 05:57:23;;;;;;;;;;;;;;;11.79;69.61;96547.31;4963489;28;20084;-77
2023/10/28 06:00:12;;;;;;;;;;;;;;;11.85;70.13;96556.03;4967524;28;19992;-77
2023/10/28 06:03:00;;;;;;;;;;;;;;;11.81;69.29;96566.00;4962692;28;19922;-77
2023/10/28 06:05:48;;;;;;;;;;;;;;;11.96;69.14;96567.97;4969094;28;20257;-77
2023/10/28 06:08:38;;;;;;;;;;;;;;;12.16;68.13;96560.66;4968664;28;19964;-77
2023/10/28 06:11:26;;;;;;;;;;;;;;;11.96;68.37;96557.06;4964438;28;20202;-77
2023/10/28 06:14:14;;;;;;;;;;;;;;;12.00;68.59;96570.78;4969886;28;20340;-77
2023/10/28 06:17:03;;;;;;;;;;;;;;;12.09;67.87;96579.56;4954945;28;19926;-77
2023/10/28 06:19:52;;;;;;;;;;;;;;;12.03;67.84;96576.28;4952657;28;19929;-77
2023/10/28 06:22:40;;;;;;;;;;;;;;;11.73;69.12;96581.38;4967163;28;20342;-77
2023/10/28 06:25:29;;;;;;;;;;;;;;;11.78;69.02;96588.50;4968297;28;20009;-77
2023/10/28 06:28:18;;;;;;;;;;;;;;;11.71;69.32;96582.84;4968943;28;19922;-78
2023/10/28 06:31:06;;;;;;;;;;;;;;;11.65;69.16;96584.25;4970211;28;19965;-77
2023/10/28 06:33:54;;;;;;;;;;;;;;;11.80;69.18;96586.19;4956169;28;19926;-77
2023/10/28 06:36:42;;;;;;;;;;;;;;;11.93;68.50;96585.00;4964403;28;19922;-77
2023/10/28 06:39:33;;;;;;;;;;;;;;;12.06;67.62;96589.19;4968629;28;19922;-77
2023/10/28 06:42:23;;;;;;;;;;;;;;;12.16;67.09;96587.09;4969665;28;19922;-77
2023/10/28 06:45:15;;;;;;;;;;;;;;;12.16;67.43;96598.78;4961755;28;19937;-77
2023/10/28 06:48:03;;;;;;;;;;;;;;;11.78;68.20;96593.94;4970715;28;19981;-77
2023/10/28 06:50:51;;;;;;;;;;;;;;;12.07;67.03;96598.94;4962421;28;19926;-77
2023/10/28 06:53:42;;;;;;;;;;;;;;;12.04;67.51;96598.88;4969188;28;19922;-77
2023/10/28 06:56:30;;;;;;;;;;;;;;;11.89;67.65;96599.66;4951216;28;19930;-76
2023/10/28 06:59:19;;;;;;;;;;;;;;;11.96;67.56;96600.63;4968373;28;19922;-77
2023/10/28 07:02:08;;;;;;;;;;;;;;;12.09;68.08;96595.06;4962171;28;19922;-77
2023/10/28 07:04:56;;;;;;;;;;;;;;;12.07;67.59;96604.38;4959071;28;20008;-77
2023/10/28 07:07:44;;;;;;;;;;;;;;;12.12;66.72;96603.34;4963898;28;19950;-77
2023/10/28 07:10:33;;;;;;;;;;;;;;;12.15;66.48;96605.38;4966452;28;20390;-77
2023/10/28 07:13:22;;;;;;;;;;;;;;;12.10;66.37;96600.19;4966866;28;19938;-77
2023/10/28 07:16:11;;;;;;;;;;;;;;;12.18;67.33;96606.56;4965989;28;20368;-77
2023/10/28 07:18:59;;;;;;;;;;;;;;;12.14;66.53;96611.16;4966835;28;19922;-76
2023/10/28 07:21:47;;;;;;;;;;;;;;;12.27;66.82;96623.53;4965176;28;19926;-76
2023/10/28 07:24:35;;;;;;;;;;;;;;;12.28;66.00;96627.81;4962986;28;19923;-77
2023/10/28 07:27:24;;;;;;;;;;;;;;;11.99;66.77;96635.31;4968943;28;19954;-77
2023/10/28 07:30:14;;;;;;;;;;;;;;;12.19;67.16;96629.94;4969133;28;19926;-77
2023/10/28 07:33:03;;;;;;;;;;;;;;;12.34;66.23;96637.31;4966792;28;20360;-76
2023/10/28 07:35:51;;;;;;;;;;;;;;;12.41;65.22;96640.22;4970892;28;20424;-76
2023/10/28 07:38:40;;;;;;;;;;;;;;;12.22;67.12;96642.84;4967998;28;20321;-76
2023/10/28 07:41:29;;;;;;;;;;;;;;;12.23;65.36;96636.25;4967781;28;20003;-76
2023/10/28 07:44:17;;;;;;;;;;;;;;;12.34;66.17;96648.19;4971753;28;20296;-76
2023/10/28 07:47:06;;;;;;;;;;;;;;;12.40;65.84;96651.44;4964839;28;19933;-76
2023/10/28 07:49:56;;;;;;;;;;;;;;;12.32;65.61;96651.28;4969843;28;20012;-76
2023/10/28 07:52:44;;;;;;;;;;;;;;;12.24;66.53;96659.63;4965465;28;20019;-76
2023/10/28 07:55:32;;;;;;;;;;;;;;;12.35;65.62;96668.84;4967394;28;19934;-76
2023/10/28 07:58:20;;;;;;;;;;;;;;;12.33;66.84;96671.13;4966185;28;20284;-77
2023/10/28 08:01:13;;;;;;;;;;;;;;;12.08;66.44;96673.22;4966046;28;19993;-77
2023/10/28 08:04:01;;;;;;;;;;;;;;;12.24;66.65;96678.69;4957313;28;19929;-77
2023/10/28 08:06:51;;;;;;;;;;;;;;;12.29;67.21;96695.53;4960623;28;19926;-76
2023/10/28 08:09:38;;;;;;;;;;;;;;;12.41;65.67;96697.41;4967952;28;20057;-77
2023/10/28 08:12:26;;;;;;;;;;;;;;;12.42;66.15;96704.44;4968646;28;20012;-77
2023/10/28 08:15:15;;;;;;;;;;;;;;;12.38;66.28;96700.03;4971400;28;20257;-77
2023/10/28 08:18:05;;;;;;;;;;;;;;;12.33;66.85;96709.25;4974020;28;20005;-76
2023/10/28 08:20:52;;;;;;;;;;;;;;;12.61;65.73;96705.63;4975122;28;20036;-77
2023/10/28 08:23:43;;;;;;;;;;;;;;;12.61;64.83;96716.53;4969191;28;19938;-76
2023/10/28 08:26:31;;;;;;;;;;;;;;;12.72;65.78;96717.56;4974307;28;19929;-77
2023/10/28 08:29:19;;;;;;;;;;;;;;;12.80;64.13;96711.94;4970030;28;20522;-76
2023/10/28 08:32:07;;;;;;;;;;;;;;;12.69;64.59;96721.03;4972457;28;20390;-77
2023/10/28 08:34:56;;;;;;;;;;;;;;;12.72;64.44;96717.56;4972569;28;19926;-76
2023/10/28 08:37:44;;;;;;;;;;;;;;;12.84;64.11;96725.66;4972066;28;20541;-77
2023/10/28 08:40:34;;;;;;;;;;;;;;;12.79;64.06;96724.00;4968586;28;20076;-77
2023/10/28 08:43:24;;;;;;;;;;;;;;;12.81;63.81;96720.91;4968079;28;20443;-77
2023/10/28 08:46:12;;;;;;;;;;;;;;;12.99;63.43;96710.38;4969614;28;20024;-76
2023/10/28 08:49:00;;;;;;;;;;;;;;;12.89;63.58;96708.22;4971226;28;20291;-77
2023/10/28 08:51:49;;;;;;;;;;;;;;;12.93;63.04;96701.69;4975819;28;19922;-77
2023/10/28 08:54:38;;;;;;;;;;;;;;;12.84;64.10;96714.75;4972063;28;19929;-76
2023/10/28 08:57:28;;;;;;;;;;;;;;;12.94;62.71;96719.63;4973702;28;20291;-76
2023/10/28 09:00:17;;;;;;;;;;;;;;;12.93;62.95;96720.00;4973031;28;20339;-76
2023/10/28 09:03:05;;;;;;;;;;;;;;;12.78;64.52;96721.59;4973252;28;19922;-77
2023/10/28 09:05:53;;;;;;;;;;;;;;;12.78;64.18;96724.31;4969450;28;19929;-76
2023/10/28 09:08:41;;;;;;;;;;;;;;;12.72;63.97;96723.81;4973991;28;19926;-77
2023/10/28 09:11:29;;;;;;;;;;;;;;;12.65;64.87;96733.75;4967647;28;20352;-77
2023/10/28 09:14:19;;;;;;;;;;;;;;;12.81;64.21;96737.25;4957074;28;19922;-76
2023/10/28 09:17:08;;;;;;;;;;;;;;;12.93;63.60;96728.97;4974086;28;19952;-77
2023/10/28 09:19:56;;;;;;;;;;;;;;;12.90;63.24;96732.41;4973375;28;20020;-76
2023/10/28 09:22:45;;;;;;;;;;;;;;;12.84;64.96;96733.84;4968286;28;19922;-76
2023/10/28 09:25:34;;;;;;;;;;;;;;;12.97;64.15;96737.22;4967670;28;20508;-77
2023/10/28 09:28:22;;;;;;;;;;;;;;;13.04;63.73;96737.38;4972741;28;19926;-76
2023/10/28 09:31:12;;;;;;;;;;;;;;;13.23;63.71;96742.13;4958280;28;20386;-76
2023/10/28 09:34:00;;;;;;;;;;;;;;;13.25;63.98;96740.59;4969776;28;19922;-77
2023/10/28 09:36:50;;;;;;;;;;;;;;;13.29;62.06;96740.69;4966992;28;19926;-77
2023/10/28 09:39:46;;;;;;;;;;;;;;;13.20;63.02;96750.97;4965292;28;19922;-76
2023/10/28 09:42:35;;;;;;;;;;;;;;;13.27;62.19;96737.53;4966507;28;19922;-76
2023/10/28 09:45:23;;;;;;;;;;;;;;;13.21;64.12;96745.22;4969072;28;19922;-77
2023/10/28 09:48:13;;;;;;;;;;;;;;;13.43;62.70;96746.44;4972408;28;20272;-77
2023/10/28 09:51:01;;;;;;;;;;;;;;;13.45;61.49;96740.63;4971771;28;20284;-76
2023/10/28 09:53:51;;;;;;;;;;;;;;;13.66;61.54;96743.00;4966226;28;19988;-77
2023/10/28 09:56:39;;;;;;;;;;;;;;;13.61;61.90;96741.34;4966642;28;20016;-76
2023/10/28 09:59:27;;;;;;;;;;;;;;;13.65;61.56;96735.97;4970578;28;20013;-77
2023/10/28 10:02:23;;;;;;;;;;;;;;;13.55;61.84;96726.41;4966073;28;20428;-77
2023/10/28 10:05:15;;;;;;;;;;;;;;;13.62;60.89;96732.78;4967313;28;19922;-76
2023/10/28 10:08:16;;;;;;;;;;;;;;;13.67;61.10;96729.00;4975412;28;19929;-77
2023/10/28 10:11:06;;;;;;;;;;;;;;;13.63;61.22;96728.13;4972324;28;19929;-76
2023/10/28 10:13:56;;;;;;;;;;;;;;;13.80;61.17;96737.84;4973586;28;20045;-77
2023/10/28 10:16:46;;;;;;;;;;;;;;;13.68;61.19;96735.25;4971570;28;19926;-77
2023/10/28 10:19:35;;;;;;;;;;;;;;;13.92;61.00;96723.22;4971430;28;19997;-77
2023/10/28 10:22:29;;;;;;;;;;;;;;;13.90;60.75;96726.31;4964195;28;19926;-77
2023/10/28 10:25:19;;;;;;;;;;;;;;;14.15;59.54;96730.28;4968786;28;20041;-77
2023/10/28 10:28:13;;;;;;;;;;;;;;;14.16;58.79;96734.59;4969858;28;19928;-77
2023/10/28 10:31:08;;;;;;;;;;;;;;;14.23;59.28;96723.03;4966294;28;19929;-77
2023/10/28 10:34:04;;;;;;;;;;;;;;;14.30;58.47;96728.59;4967830;28;20454;-77
2023/10/28 10:36:52;;;;;;;;;;;;;;;14.36;58.49;96723.63;4969430;28;19922;-76
2023/10/28 10:39:46;;;;;;;;;;;;;;;14.30;57.73;96722.34;4962378;28;19929;-77
2023/10/28 10:42:34;;;;;;;;;;;;;;;14.31;58.06;96718.47;4970506;28;21647;-77
2023/10/28 10:45:22;;;;;;;;;;;;;;;14.04;58.81;96710.19;4971303;28;20438;-76
2023/10/28 10:48:13;;;;;;;;;;;;;;;14.05;59.94;96708.25;4964375;28;20009;-76
2023/10/28 10:51:02;;;;;;;;;;;;;;;14.28;59.06;96713.75;4968037;28;19922;-77
2023/10/28 10:53:50;;;;;;;;;;;;;;;14.22;59.29;96713.25;4962989;28;19984;-77
2023/10/28 10:56:39;;;;;;;;;;;;;;;14.25;58.98;96717.19;4966186;28;19922;-77
2023/10/28 10:59:28;;;;;;;;;;;;;;;14.25;58.62;96711.72;4952140;29;20280;-78
2023/10/28 11:02:17;;;;;;;;;;;;;;;14.13;58.71;96713.47;4969090;28;20423;-77
2023/10/28 11:05:06;;;;;;;;;;;;;;;14.10;58.87;96722.38;4950050;28;19929;-77
2023/10/28 11:07:53;;;;;;;;;;;;;;;14.29;58.86;96727.03;4968038;28;20279;-77
2023/10/28 11:10:43;;;;;;;;;;;;;;;14.38;57.48;96718.56;4969292;28;19980;-78
2023/10/28 11:13:32;;;;;;;;;;;;;;;14.49;57.02;96719.59;4966637;28;19926;-77
2023/10/28 11:16:21;;;;;;;;;;;;;;;14.56;57.25;96718.91;4971040;28;19928;-77
2023/10/28 11:19:09;;;;;;;;;;;;;;;14.53;56.59;96720.41;4951323;28;19922;-77
2023/10/28 11:21:59;;;;;;;;;;;;;;;14.65;56.48;96719.44;4973219;28;19965;-77
2023/10/28 11:24:47;;;;;;;;;;;;;;;14.58;56.61;96714.63;4969400;28;19941;-77
2023/10/28 11:27:37;;;;;;;;;;;;;;;14.50;56.90;96715.69;4963082;28;20036;-77
2023/10/28 11:30:28;;;;;;;;;;;;;;;14.55;57.35;96722.81;4957227;28;19981;-77
2023/10/28 11:33:16;;;;;;;;;;;;;;;14.76;56.45;96725.88;4960726;28;19929;-77
2023/10/28 11:36:05;;;;;;;;;;;;;;;14.74;56.18;96716.44;4966032;28;20004;-77
2023/10/28 11:38:54;;;;;;;;;;;;;;;14.94;55.07;96723.41;4962192;28;19922;-76
2023/10/28 11:41:43;;;;;;;;;;;;;;;14.95;54.10;96724.97;4960651;28;19922;-77
2023/10/28 11:44:32;;;;;;;;;;;;;;;14.88;54.33;96725.66;4965523;28;19941;-77
2023/10/28 11:47:22;;;;;;;;;;;;;;;14.89;53.51;96726.44;4964342;28;19973;-77
2023/10/28 11:50:11;;;;;;;;;;;;;;;14.90;53.35;96717.88;4963269;28;19923;-77
2023/10/28 11:52:59;;;;;;;;;;;;;;;14.83;53.98;96722.44;4965987;28;19960;-77
2023/10/28 11:55:47;;;;;;;;;;;;;;;14.74;54.32;96725.44;4969306;28;19926;-77
2023/10/28 11:58:35;;;;;;;;;;;;;;;14.72;54.53;96716.81;4951167;28;19926;-77
2023/10/28 12:01:23;;;;;;;;;;;;;;;14.70;55.20;96727.34;4961528;28;20082;-77
2023/10/28 12:04:12;;;;;;;;;;;;;;;14.67;54.58;96725.34;4967921;28;20125;-76
2023/10/28 12:07:03;;;;;;;;;;;;;;;14.64;55.65;96720.59;4966100;28;21309;-77
2023/10/28 12:09:51;;;;;;;;;;;;;;;14.64;55.58;96732.31;4964517;28;20036;-77
2023/10/28 12:12:39;;;;;;;;;;;;;;;14.62;56.16;96723.69;4966896;28;20237;-77
2023/10/28 12:15:27;;;;;;;;;;;;;;;14.56;56.07;96718.91;4965843;28;20395;-77
2023/10/28 12:18:15;;;;;;;;;;;;;;;14.49;55.44;96716.84;4952398;28;19933;-77
2023/10/28 12:21:05;;;;;;;;;;;;;;;14.51;54.80;96714.53;4955930;28;19925;-77
2023/10/28 12:23:53;;;;;;;;;;;;;;;14.48;54.98;96725.41;4960670;28;20438;-77
2023/10/28 12:26:41;;;;;;;;;;;;;;;14.33;55.33;96721.63;4964784;28;19934;-77
2023/10/28 12:29:29;;;;;;;;;;;;;;;14.40;55.15;96728.00;4959505;28;19923;-77
2023/10/28 12:32:17;;;;;;;;;;;;;;;14.49;55.16;96729.72;4962137;28;20013;-76
2023/10/28 12:35:06;;;;;;;;;;;;;;;14.46;55.37;96722.22;4969287;28;20328;-77
2023/10/28 12:37:55;;;;;;;;;;;;;;;14.49;55.25;96724.25;4972642;28;19934;-77
2023/10/28 12:40:44;;;;;;;;;;;;;;;14.63;55.26;96727.22;4957211;28;19922;-77
2023/10/28 12:43:32;;;;;;;;;;;;;;;14.70;54.86;96723.78;4960674;28;20360;-77
2023/10/28 12:46:23;;;;;;;;;;;;;;;14.71;55.34;96722.66;4968072;28;19922;-77
2023/10/28 12:49:11;;;;;;;;;;;;;;;14.69;55.26;96717.53;4970579;28;19922;-77
2023/10/28 12:52:00;;;;;;;;;;;;;;;14.81;53.97;96708.38;4963816;28;20388;-77
2023/10/28 12:54:50;;;;;;;;;;;;;;;14.82;54.39;96704.47;4952997;28;19945;-77
2023/10/28 12:57:39;;;;;;;;;;;;;;;14.79;52.65;96705.19;4970703;28;19922;-77
2023/10/28 13:00:28;;;;;;;;;;;;;;;14.84;53.26;96707.63;4972271;28;19932;-77
2023/10/28 13:03:16;;;;;;;;;;;;;;;14.82;54.42;96693.53;4971609;28;19926;-77
2023/10/28 13:06:04;;;;;;;;;;;;;;;14.86;53.86;96694.34;4967697;28;19926;-76
2023/10/28 13:08:53;;;;;;;;;;;;;;;14.93;52.68;96689.00;4972153;28;19972;-77
2023/10/28 13:11:42;;;;;;;;;;;;;;;14.83;53.41;96686.91;4958118;28;20004;-77
2023/10/28 13:14:30;;;;;;;;;;;;;;;14.74;53.35;96691.84;4956653;28;19929;-77
2023/10/28 13:17:19;;;;;;;;;;;;;;;14.66;54.53;96690.97;4955875;28;19922;-77
2023/10/28 13:20:08;;;;;;;;;;;;;;;14.71;55.00;96681.66;4963575;28;20388;-77
2023/10/28 13:22:57;;;;;;;;;;;;;;;14.60;54.53;96685.00;4974924;28;20032;-77
2023/10/28 13:25:45;;;;;;;;;;;;;;;14.61;53.54;96683.84;4954061;28;19945;-76
2023/10/28 13:28:34;;;;;;;;;;;;;;;14.70;53.18;96691.81;4961662;28;20221;-76
2023/10/28 13:31:23;;;;;;;;;;;;;;;14.75;53.56;96685.22;4974235;28;19922;-77
2023/10/28 13:34:11;;;;;;;;;;;;;;;14.75;53.00;96680.53;4972088;28;20422;-76
2023/10/28 13:36:59;;;;;;;;;;;;;;;14.58;53.86;96679.09;4967568;28;20339;-77
2023/10/28 13:39:47;;;;;;;;;;;;;;;14.54;53.97;96683.75;4970596;28;19926;-77
2023/10/28 13:42:35;;;;;;;;;;;;;;;14.57;54.38;96677.53;4969951;28;19925;-77
2023/10/28 13:45:24;;;;;;;;;;;;;;;14.63;54.54;96681.53;4972817;28;19929;-77
2023/10/28 13:48:15;;;;;;;;;;;;;;;14.61;53.20;96681.13;4956635;28;19922;-77
2023/10/28 13:51:05;;;;;;;;;;;;;;;14.61;53.73;96678.38;4967290;28;19922;-77
2023/10/28 13:53:54;;;;;;;;;;;;;;;14.61;53.60;96675.66;4968168;28;19926;-77
2023/10/28 13:56:42;;;;;;;;;;;;;;;14.44;54.13;96680.81;4966999;28;19945;-77
2023/10/28 13:59:30;;;;;;;;;;;;;;;14.53;53.70;96687.63;4966556;28;19922;-76
2023/10/28 14:02:20;;;;;;;;;;;;;;;14.42;55.08;96683.91;4963962;28;19929;-77
2023/10/28 14:05:09;;;;;;;;;;;;;;;14.53;54.11;96679.41;4956371;28;19973;-77
2023/10/28 14:07:57;;;;;;;;;;;;;;;14.57;53.92;96677.53;4966057;28;20077;-77
2023/10/28 14:10:46;;;;;;;;;;;;;;;14.47;53.94;96686.34;4957871;28;20296;-77
2023/10/28 14:13:34;;;;;;;;;;;;;;;14.42;55.07;96690.16;4955467;28;20331;-77
2023/10/28 14:16:24;;;;;;;;;;;;;;;14.43;54.67;96688.19;4969159;28;20327;-78
2023/10/28 14:19:13;;;;;;;;;;;;;;;14.48;54.78;96685.19;4966866;28;19922;-79
2023/10/28 14:22:02;;;;;;;;;;;;;;;14.47;53.44;96693.75;4963612;28;20572;-79
2023/10/28 14:24:50;;;;;;;;;;;;;;;14.41;55.71;96693.25;4968979;28;19937;-79
2023/10/28 14:27:42;;;;;;;;;;;;;;;14.37;54.95;96689.66;4960911;28;19926;-79
2023/10/28 14:30:30;;;;;;;;;;;;;;;14.40;55.81;96697.16;4966319;28;19929;-79
2023/10/28 14:33:18;;;;;;;;;;;;;;;14.43;55.51;96710.06;4966250;28;20053;-78
2023/10/28 14:36:08;;;;;;;;;;;;;;;14.38;55.87;96707.63;4957368;28;19981;-78
2023/10/28 14:38:56;;;;;;;;;;;;;;;14.40;56.13;96713.53;4969169;28;19962;-78
2023/10/28 14:41:44;;;;;;;;;;;;;;;14.32;57.56;96722.75;4964695;28;20391;-79
2023/10/28 14:44:32;;;;;;;;;;;;;;;14.47;58.66;96726.53;4967597;28;19934;-79